sensor_id;sensor_type;location;lat;lon;timestamp;P1;durP1;ratioP1;P2;durP2;ratioP2
8938;SDS011;4504;48.810;9.172;2022-09-09T00:02:10;105.70;;;2.13;;
8938;SDS011;4504;48.810;9.172;2022-09-09T00:04:45;105.77;;;2.10;;
8938;SDS011;4504;48.810;9.172;2022-09-09T00:07:23;105.97;;;2.07;;
8938;SDS011;4504;48.810;9.172;2022-09-09T00:09:59;106.90;;;2.10;;
8938;SDS011;4504;48.810;9.172;2022-09-09T00:12:38;106.27;;;2.00;;
8938;SDS011;4504;48.810;9.172;2022-09-09T00:15:15;106.50;;;2.00;;
8938;SDS011;4504;48.810;9.172;2022-09-09T00:17:47;106.07;;;1.90;;
8938;SDS011;4504;48.810;9.172;2022-09-09T00:20:20;105.80;;;2.13;;
8938;SDS011;4504;48.810;9.172;2022-09-09T00:22:57;110.17;;;2.30;;
8938;SDS011;4504;48.810;9.172;2022-09-09T00:25:32;106.70;;;2.10;;
8938;SDS011;4504;48.810;9.172;2022-09-09T00:28:09;106.50;;;1.97;;
8938;SDS011;4504;48.810;9.172;2022-09-09T00:30:43;106.90;;;2.10;;
8938;SDS011;4504;48.810;9.172;2022-09-09T00:33:13;106.77;;;2.43;;
8938;SDS011;4504;48.810;9.172;2022-09-09T00:35:44;106.77;;;2.10;;
8938;SDS011;4504;48.810;9.172;2022-09-09T00:38:14;106.30;;;2.03;;
8938;SDS011;4504;48.810;9.172;2022-09-09T00:40:45;107.87;;;2.43;;
8938;SDS011;4504;48.810;9.172;2022-09-09T00:43:24;106.47;;;2.17;;
8938;SDS011;4504;48.810;9.172;2022-09-09T00:48:53;106.30;;;2.20;;
8938;SDS011;4504;48.810;9.172;2022-09-09T00:51:29;105.63;;;1.87;;
8938;SDS011;4504;48.810;9.172;2022-09-09T00:54:11;107.00;;;2.20;;
8938;SDS011;4504;48.810;9.172;2022-09-09T00:56:47;107.47;;;2.10;;
8938;SDS011;4504;48.810;9.172;2022-09-09T00:59:24;106.63;;;2.10;;
8938;SDS011;4504;48.810;9.172;2022-09-09T01:02:00;107.80;;;2.17;;
8938;SDS011;4504;48.810;9.172;2022-09-09T01:04:29;107.23;;;2.33;;
8938;SDS011;4504;48.810;9.172;2022-09-09T01:07:03;105.80;;;2.10;;
8938;SDS011;4504;48.810;9.172;2022-09-09T01:09:42;104.87;;;2.00;;
8938;SDS011;4504;48.810;9.172;2022-09-09T01:12:24;106.27;;;2.07;;
8938;SDS011;4504;48.810;9.172;2022-09-09T01:14:58;106.30;;;2.00;;
8938;SDS011;4504;48.810;9.172;2022-09-09T01:17:33;106.50;;;2.17;;
8938;SDS011;4504;48.810;9.172;2022-09-09T01:20:10;106.40;;;2.10;;
8938;SDS011;4504;48.810;9.172;2022-09-09T01:22:50;107.53;;;2.23;;
8938;SDS011;4504;48.810;9.172;2022-09-09T01:25:29;106.43;;;2.37;;
8938;SDS011;4504;48.810;9.172;2022-09-09T01:28:22;106.17;;;2.30;;
8938;SDS011;4504;48.810;9.172;2022-09-09T01:31:00;107.40;;;2.20;;
8938;SDS011;4504;48.810;9.172;2022-09-09T01:33:36;106.07;;;2.40;;
8938;SDS011;4504;48.810;9.172;2022-09-09T01:36:04;106.10;;;2.20;;
8938;SDS011;4504;48.810;9.172;2022-09-09T01:38:41;106.10;;;2.10;;
8938;SDS011;4504;48.810;9.172;2022-09-09T01:41:08;107.90;;;2.03;;
8938;SDS011;4504;48.810;9.172;2022-09-09T01:44:00;106.07;;;2.30;;
8938;SDS011;4504;48.810;9.172;2022-09-09T01:46:29;106.50;;;2.30;;
8938;SDS011;4504;48.810;9.172;2022-09-09T01:48:57;105.67;;;1.90;;
8938;SDS011;4504;48.810;9.172;2022-09-09T01:51:27;106.90;;;2.10;;
8938;SDS011;4504;48.810;9.172;2022-09-09T01:53:56;106.83;;;2.30;;
8938;SDS011;4504;48.810;9.172;2022-09-09T01:56:28;106.47;;;2.50;;
8938;SDS011;4504;48.810;9.172;2022-09-09T01:59:15;106.80;;;2.20;;
8938;SDS011;4504;48.810;9.172;2022-09-09T02:01:57;105.77;;;2.30;;
8938;SDS011;4504;48.810;9.172;2022-09-09T02:04:36;107.00;;;2.03;;
8938;SDS011;4504;48.810;9.172;2022-09-09T02:07:16;104.30;;;2.03;;
8938;SDS011;4504;48.810;9.172;2022-09-09T02:09:55;105.67;;;2.07;;
8938;SDS011;4504;48.810;9.172;2022-09-09T02:12:26;110.83;;;2.10;;
8938;SDS011;4504;48.810;9.172;2022-09-09T02:15:00;107.20;;;2.37;;
8938;SDS011;4504;48.810;9.172;2022-09-09T02:17:41;106.50;;;2.30;;
8938;SDS011;4504;48.810;9.172;2022-09-09T02:20:14;105.40;;;2.00;;
8938;SDS011;4504;48.810;9.172;2022-09-09T02:22:47;109.37;;;2.23;;
8938;SDS011;4504;48.810;9.172;2022-09-09T02:25:19;107.07;;;2.10;;
8938;SDS011;4504;48.810;9.172;2022-09-09T02:27:52;105.47;;;2.20;;
8938;SDS011;4504;48.810;9.172;2022-09-09T02:30:21;106.80;;;2.27;;
8938;SDS011;4504;48.810;9.172;2022-09-09T02:32:53;106.60;;;2.30;;
8938;SDS011;4504;48.810;9.172;2022-09-09T02:35:35;105.83;;;1.80;;
8938;SDS011;4504;48.810;9.172;2022-09-09T02:38:05;106.80;;;2.07;;
8938;SDS011;4504;48.810;9.172;2022-09-09T02:40:36;105.00;;;2.40;;
8938;SDS011;4504;48.810;9.172;2022-09-09T02:43:03;107.17;;;2.00;;
8938;SDS011;4504;48.810;9.172;2022-09-09T02:45:35;106.07;;;2.00;;
8938;SDS011;4504;48.810;9.172;2022-09-09T02:48:18;105.23;;;2.23;;
8938;SDS011;4504;48.810;9.172;2022-09-09T02:50:54;105.00;;;1.90;;
8938;SDS011;4504;48.810;9.172;2022-09-09T02:53:32;106.07;;;2.07;;
8938;SDS011;4504;48.810;9.172;2022-09-09T02:56:08;106.87;;;1.80;;
8938;SDS011;4504;48.810;9.172;2022-09-09T02:58:41;107.37;;;2.23;;
8938;SDS011;4504;48.810;9.172;2022-09-09T03:01:10;105.97;;;2.00;;
8938;SDS011;4504;48.810;9.172;2022-09-09T03:03:38;106.37;;;2.30;;
8938;SDS011;4504;48.810;9.172;2022-09-09T03:06:10;105.97;;;2.20;;
8938;SDS011;4504;48.810;9.172;2022-09-09T03:08:38;108.47;;;2.10;;
8938;SDS011;4504;48.810;9.172;2022-09-09T03:11:06;105.97;;;1.97;;
8938;SDS011;4504;48.810;9.172;2022-09-09T03:13:36;105.97;;;1.90;;
8938;SDS011;4504;48.810;9.172;2022-09-09T03:16:03;106.70;;;2.00;;
8938;SDS011;4504;48.810;9.172;2022-09-09T03:18:36;105.77;;;2.03;;
8938;SDS011;4504;48.810;9.172;2022-09-09T03:21:04;106.40;;;1.90;;
8938;SDS011;4504;48.810;9.172;2022-09-09T03:23:32;105.67;;;2.00;;
8938;SDS011;4504;48.810;9.172;2022-09-09T03:26:02;105.87;;;1.90;;
8938;SDS011;4504;48.810;9.172;2022-09-09T03:28:41;106.17;;;2.10;;
8938;SDS011;4504;48.810;9.172;2022-09-09T03:31:10;106.70;;;2.00;;
8938;SDS011;4504;48.810;9.172;2022-09-09T03:33:41;105.10;;;1.90;;
8938;SDS011;4504;48.810;9.172;2022-09-09T03:36:11;109.07;;;2.77;;
8938;SDS011;4504;48.810;9.172;2022-09-09T03:38:38;106.47;;;2.10;;
8938;SDS011;4504;48.810;9.172;2022-09-09T03:41:06;106.80;;;1.90;;
8938;SDS011;4504;48.810;9.172;2022-09-09T03:43:34;105.23;;;2.20;;
8938;SDS011;4504;48.810;9.172;2022-09-09T03:46:03;107.30;;;2.20;;
8938;SDS011;4504;48.810;9.172;2022-09-09T03:48:30;106.27;;;2.03;;
8938;SDS011;4504;48.810;9.172;2022-09-09T03:50:59;106.70;;;2.10;;
8938;SDS011;4504;48.810;9.172;2022-09-09T03:53:29;106.57;;;2.20;;
8938;SDS011;4504;48.810;9.172;2022-09-09T03:55:57;106.37;;;2.00;;
8938;SDS011;4504;48.810;9.172;2022-09-09T03:58:26;106.47;;;2.20;;
8938;SDS011;4504;48.810;9.172;2022-09-09T04:01:00;106.10;;;1.97;;
8938;SDS011;4504;48.810;9.172;2022-09-09T04:03:29;107.77;;;2.23;;
8938;SDS011;4504;48.810;9.172;2022-09-09T04:05:58;108.60;;;2.10;;
8938;SDS011;4504;48.810;9.172;2022-09-09T04:08:29;107.27;;;2.10;;
8938;SDS011;4504;48.810;9.172;2022-09-09T04:10:58;106.57;;;1.90;;
8938;SDS011;4504;48.810;9.172;2022-09-09T04:13:27;107.13;;;2.17;;
8938;SDS011;4504;48.810;9.172;2022-09-09T04:15:56;108.40;;;2.30;;
8938;SDS011;4504;48.810;9.172;2022-09-09T04:18:25;107.17;;;2.03;;
8938;SDS011;4504;48.810;9.172;2022-09-09T04:20:53;106.50;;;2.10;;
8938;SDS011;4504;48.810;9.172;2022-09-09T04:23:25;106.57;;;2.20;;
8938;SDS011;4504;48.810;9.172;2022-09-09T04:25:54;106.87;;;2.00;;
8938;SDS011;4504;48.810;9.172;2022-09-09T04:28:23;106.50;;;2.20;;
8938;SDS011;4504;48.810;9.172;2022-09-09T04:30:52;105.57;;;1.90;;
8938;SDS011;4504;48.810;9.172;2022-09-09T04:33:20;110.70;;;2.40;;
8938;SDS011;4504;48.810;9.172;2022-09-09T04:35:49;107.50;;;2.30;;
8938;SDS011;4504;48.810;9.172;2022-09-09T04:38:19;106.47;;;2.30;;
8938;SDS011;4504;48.810;9.172;2022-09-09T04:40:50;107.30;;;2.10;;
8938;SDS011;4504;48.810;9.172;2022-09-09T04:43:19;108.80;;;2.50;;
8938;SDS011;4504;48.810;9.172;2022-09-09T04:45:48;110.07;;;2.30;;
8938;SDS011;4504;48.810;9.172;2022-09-09T04:48:19;106.23;;;2.20;;
8938;SDS011;4504;48.810;9.172;2022-09-09T04:50:55;106.03;;;2.10;;
8938;SDS011;4504;48.810;9.172;2022-09-09T04:53:23;106.90;;;2.30;;
8938;SDS011;4504;48.810;9.172;2022-09-09T04:55:52;112.57;;;2.70;;
8938;SDS011;4504;48.810;9.172;2022-09-09T04:58:26;106.90;;;2.27;;
8938;SDS011;4504;48.810;9.172;2022-09-09T05:00:54;107.10;;;2.20;;
8938;SDS011;4504;48.810;9.172;2022-09-09T05:03:21;107.30;;;2.20;;
8938;SDS011;4504;48.810;9.172;2022-09-09T05:05:48;108.47;;;2.37;;
8938;SDS011;4504;48.810;9.172;2022-09-09T05:08:15;106.80;;;2.00;;
8938;SDS011;4504;48.810;9.172;2022-09-09T05:10:43;106.00;;;2.00;;
8938;SDS011;4504;48.810;9.172;2022-09-09T05:13:12;106.53;;;2.23;;
8938;SDS011;4504;48.810;9.172;2022-09-09T05:15:39;107.00;;;2.40;;
8938;SDS011;4504;48.810;9.172;2022-09-09T05:18:08;109.30;;;2.20;;
8938;SDS011;4504;48.810;9.172;2022-09-09T05:20:36;106.10;;;2.00;;
8938;SDS011;4504;48.810;9.172;2022-09-09T05:23:03;107.20;;;2.20;;
8938;SDS011;4504;48.810;9.172;2022-09-09T05:25:31;110.07;;;2.33;;
8938;SDS011;4504;48.810;9.172;2022-09-09T05:27:58;107.40;;;2.20;;
8938;SDS011;4504;48.810;9.172;2022-09-09T05:30:28;108.00;;;2.37;;
8938;SDS011;4504;48.810;9.172;2022-09-09T05:32:55;106.07;;;2.30;;
8938;SDS011;4504;48.810;9.172;2022-09-09T05:35:22;107.80;;;2.40;;
8938;SDS011;4504;48.810;9.172;2022-09-09T05:37:50;107.60;;;2.27;;
8938;SDS011;4504;48.810;9.172;2022-09-09T05:40:18;106.50;;;2.20;;
8938;SDS011;4504;48.810;9.172;2022-09-09T05:42:46;107.07;;;2.07;;
8938;SDS011;4504;48.810;9.172;2022-09-09T05:45:14;105.90;;;2.20;;
8938;SDS011;4504;48.810;9.172;2022-09-09T05:47:43;109.77;;;2.40;;
8938;SDS011;4504;48.810;9.172;2022-09-09T05:50:13;105.60;;;2.10;;
8938;SDS011;4504;48.810;9.172;2022-09-09T05:52:40;106.57;;;2.03;;
8938;SDS011;4504;48.810;9.172;2022-09-09T05:55:07;105.60;;;2.30;;
8938;SDS011;4504;48.810;9.172;2022-09-09T05:57:34;108.17;;;2.37;;
8938;SDS011;4504;48.810;9.172;2022-09-09T06:00:02;107.47;;;2.40;;
8938;SDS011;4504;48.810;9.172;2022-09-09T06:02:39;107.70;;;2.40;;
8938;SDS011;4504;48.810;9.172;2022-09-09T06:05:09;110.27;;;2.50;;
8938;SDS011;4504;48.810;9.172;2022-09-09T06:07:37;106.80;;;2.43;;
8938;SDS011;4504;48.810;9.172;2022-09-09T06:10:08;107.10;;;2.23;;
8938;SDS011;4504;48.810;9.172;2022-09-09T06:12:35;107.47;;;2.20;;
8938;SDS011;4504;48.810;9.172;2022-09-09T06:15:03;109.77;;;2.30;;
8938;SDS011;4504;48.810;9.172;2022-09-09T06:17:31;108.30;;;2.50;;
8938;SDS011;4504;48.810;9.172;2022-09-09T06:19:58;108.37;;;2.50;;
8938;SDS011;4504;48.810;9.172;2022-09-09T06:22:26;111.77;;;2.47;;
8938;SDS011;4504;48.810;9.172;2022-09-09T06:24:53;108.20;;;2.67;;
8938;SDS011;4504;48.810;9.172;2022-09-09T06:27:21;108.50;;;2.77;;
8938;SDS011;4504;48.810;9.172;2022-09-09T06:29:48;105.90;;;2.60;;
8938;SDS011;4504;48.810;9.172;2022-09-09T06:32:16;107.80;;;2.90;;
8938;SDS011;4504;48.810;9.172;2022-09-09T06:34:43;108.87;;;2.60;;
8938;SDS011;4504;48.810;9.172;2022-09-09T06:37:10;107.27;;;2.80;;
8938;SDS011;4504;48.810;9.172;2022-09-09T06:39:45;107.27;;;2.50;;
8938;SDS011;4504;48.810;9.172;2022-09-09T06:42:13;107.37;;;2.43;;
8938;SDS011;4504;48.810;9.172;2022-09-09T06:45:16;108.83;;;2.70;;
8938;SDS011;4504;48.810;9.172;2022-09-09T06:47:50;107.53;;;2.57;;
8938;SDS011;4504;48.810;9.172;2022-09-09T06:50:17;106.23;;;2.43;;
8938;SDS011;4504;48.810;9.172;2022-09-09T06:52:47;106.27;;;2.60;;
8938;SDS011;4504;48.810;9.172;2022-09-09T06:55:16;107.63;;;2.73;;
8938;SDS011;4504;48.810;9.172;2022-09-09T06:57:43;106.50;;;2.50;;
8938;SDS011;4504;48.810;9.172;2022-09-09T07:00:15;106.87;;;2.50;;
8938;SDS011;4504;48.810;9.172;2022-09-09T07:02:43;106.50;;;2.20;;
8938;SDS011;4504;48.810;9.172;2022-09-09T07:05:11;107.57;;;2.30;;
8938;SDS011;4504;48.810;9.172;2022-09-09T07:07:40;107.17;;;2.20;;
8938;SDS011;4504;48.810;9.172;2022-09-09T07:10:10;107.73;;;2.57;;
8938;SDS011;4504;48.810;9.172;2022-09-09T07:12:38;106.17;;;2.20;;
8938;SDS011;4504;48.810;9.172;2022-09-09T07:15:09;107.47;;;2.70;;
8938;SDS011;4504;48.810;9.172;2022-09-09T07:17:38;106.00;;;2.00;;
8938;SDS011;4504;48.810;9.172;2022-09-09T07:20:05;105.67;;;2.00;;
8938;SDS011;4504;48.810;9.172;2022-09-09T07:22:33;109.67;;;2.47;;
8938;SDS011;4504;48.810;9.172;2022-09-09T07:25:01;106.77;;;2.27;;
8938;SDS011;4504;48.810;9.172;2022-09-09T07:27:28;106.87;;;2.10;;
8938;SDS011;4504;48.810;9.172;2022-09-09T07:29:56;104.67;;;2.30;;
8938;SDS011;4504;48.810;9.172;2022-09-09T07:32:23;105.27;;;1.90;;
8938;SDS011;4504;48.810;9.172;2022-09-09T07:34:51;105.80;;;2.10;;
8938;SDS011;4504;48.810;9.172;2022-09-09T07:37:18;106.00;;;2.57;;
8938;SDS011;4504;48.810;9.172;2022-09-09T07:39:46;106.67;;;2.30;;
8938;SDS011;4504;48.810;9.172;2022-09-09T07:42:16;106.73;;;2.33;;
8938;SDS011;4504;48.810;9.172;2022-09-09T07:44:44;105.10;;;2.00;;
8938;SDS011;4504;48.810;9.172;2022-09-09T07:47:15;108.10;;;2.30;;
8938;SDS011;4504;48.810;9.172;2022-09-09T07:49:45;105.90;;;2.00;;
8938;SDS011;4504;48.810;9.172;2022-09-09T07:52:18;105.07;;;1.97;;
8938;SDS011;4504;48.810;9.172;2022-09-09T07:54:50;105.40;;;2.10;;
8938;SDS011;4504;48.810;9.172;2022-09-09T07:57:17;105.40;;;2.30;;
8938;SDS011;4504;48.810;9.172;2022-09-09T07:59:44;106.00;;;2.80;;
8938;SDS011;4504;48.810;9.172;2022-09-09T08:02:12;106.60;;;2.23;;
8938;SDS011;4504;48.810;9.172;2022-09-09T08:04:40;107.00;;;2.40;;
8938;SDS011;4504;48.810;9.172;2022-09-09T08:07:09;108.17;;;2.47;;
8938;SDS011;4504;48.810;9.172;2022-09-09T08:09:43;107.00;;;2.60;;
8938;SDS011;4504;48.810;9.172;2022-09-09T08:12:24;106.63;;;2.40;;
8938;SDS011;4504;48.810;9.172;2022-09-09T08:14:51;104.23;;;2.20;;
8938;SDS011;4504;48.810;9.172;2022-09-09T08:17:20;107.97;;;2.20;;
8938;SDS011;4504;48.810;9.172;2022-09-09T08:19:49;105.27;;;2.20;;
8938;SDS011;4504;48.810;9.172;2022-09-09T08:22:20;105.20;;;2.10;;
8938;SDS011;4504;48.810;9.172;2022-09-09T08:24:48;106.47;;;2.07;;
8938;SDS011;4504;48.810;9.172;2022-09-09T08:27:16;105.80;;;1.93;;
8938;SDS011;4504;48.810;9.172;2022-09-09T08:29:44;105.87;;;2.00;;
8938;SDS011;4504;48.810;9.172;2022-09-09T08:32:11;104.47;;;2.10;;
8938;SDS011;4504;48.810;9.172;2022-09-09T08:34:39;103.50;;;2.00;;
8938;SDS011;4504;48.810;9.172;2022-09-09T08:37:13;104.83;;;1.93;;
8938;SDS011;4504;48.810;9.172;2022-09-09T08:39:42;106.87;;;2.10;;
8938;SDS011;4504;48.810;9.172;2022-09-09T08:42:24;103.47;;;1.90;;
8938;SDS011;4504;48.810;9.172;2022-09-09T08:45:06;105.10;;;1.80;;
8938;SDS011;4504;48.810;9.172;2022-09-09T08:47:49;104.57;;;1.73;;
8938;SDS011;4504;48.810;9.172;2022-09-09T08:50:29;104.47;;;1.90;;
8938;SDS011;4504;48.810;9.172;2022-09-09T08:53:11;104.53;;;1.93;;
8938;SDS011;4504;48.810;9.172;2022-09-09T08:55:44;104.77;;;1.80;;
8938;SDS011;4504;48.810;9.172;2022-09-09T08:58:15;104.13;;;2.10;;
8938;SDS011;4504;48.810;9.172;2022-09-09T09:00:59;103.10;;;1.97;;
8938;SDS011;4504;48.810;9.172;2022-09-09T09:03:48;103.57;;;1.97;;
8938;SDS011;4504;48.810;9.172;2022-09-09T09:06:26;103.17;;;1.97;;
8938;SDS011;4504;48.810;9.172;2022-09-09T09:09:06;106.30;;;2.10;;
8938;SDS011;4504;48.810;9.172;2022-09-09T09:11:38;105.57;;;2.10;;
8938;SDS011;4504;48.810;9.172;2022-09-09T09:14:09;105.43;;;1.90;;
8938;SDS011;4504;48.810;9.172;2022-09-09T09:16:41;105.37;;;1.90;;
8938;SDS011;4504;48.810;9.172;2022-09-09T09:19:15;105.57;;;2.07;;
8938;SDS011;4504;48.810;9.172;2022-09-09T09:21:48;104.30;;;1.70;;
8938;SDS011;4504;48.810;9.172;2022-09-09T09:24:23;106.50;;;1.80;;
8938;SDS011;4504;48.810;9.172;2022-09-09T09:26:58;105.90;;;1.90;;
8938;SDS011;4504;48.810;9.172;2022-09-09T09:29:27;104.00;;;1.93;;
8938;SDS011;4504;48.810;9.172;2022-09-09T09:31:55;104.87;;;2.00;;
8938;SDS011;4504;48.810;9.172;2022-09-09T09:34:26;108.17;;;1.70;;
8938;SDS011;4504;48.810;9.172;2022-09-09T09:36:55;104.37;;;1.93;;
8938;SDS011;4504;48.810;9.172;2022-09-09T09:39:28;102.90;;;1.60;;
8938;SDS011;4504;48.810;9.172;2022-09-09T09:42:07;104.13;;;1.80;;
8938;SDS011;4504;48.810;9.172;2022-09-09T09:44:40;104.20;;;1.60;;
8938;SDS011;4504;48.810;9.172;2022-09-09T09:47:13;104.30;;;1.80;;
8938;SDS011;4504;48.810;9.172;2022-09-09T09:49:51;104.47;;;1.80;;
8938;SDS011;4504;48.810;9.172;2022-09-09T09:52:20;105.57;;;1.90;;
8938;SDS011;4504;48.810;9.172;2022-09-09T09:54:51;104.80;;;1.73;;
8938;SDS011;4504;48.810;9.172;2022-09-09T09:57:22;102.70;;;1.70;;
8938;SDS011;4504;48.810;9.172;2022-09-09T10:00:01;102.93;;;1.80;;
8938;SDS011;4504;48.810;9.172;2022-09-09T10:02:41;103.47;;;1.70;;
8938;SDS011;4504;48.810;9.172;2022-09-09T10:05:14;103.90;;;1.90;;
8938;SDS011;4504;48.810;9.172;2022-09-09T10:07:47;101.87;;;1.70;;
8938;SDS011;4504;48.810;9.172;2022-09-09T10:10:30;104.57;;;1.90;;
8938;SDS011;4504;48.810;9.172;2022-09-09T10:13:08;103.10;;;1.70;;
8938;SDS011;4504;48.810;9.172;2022-09-09T10:15:46;105.00;;;1.80;;
8938;SDS011;4504;48.810;9.172;2022-09-09T10:18:32;105.70;;;1.83;;
8938;SDS011;4504;48.810;9.172;2022-09-09T10:21:10;104.40;;;1.93;;
8938;SDS011;4504;48.810;9.172;2022-09-09T10:26:44;104.47;;;1.90;;
8938;SDS011;4504;48.810;9.172;2022-09-09T10:29:22;104.23;;;1.70;;
8938;SDS011;4504;48.810;9.172;2022-09-09T10:31:59;104.10;;;1.60;;
8938;SDS011;4504;48.810;9.172;2022-09-09T10:34:40;107.80;;;2.00;;
8938;SDS011;4504;48.810;9.172;2022-09-09T10:37:21;107.43;;;1.90;;
8938;SDS011;4504;48.810;9.172;2022-09-09T10:40:06;104.90;;;1.70;;
8938;SDS011;4504;48.810;9.172;2022-09-09T10:42:48;104.47;;;1.83;;
8938;SDS011;4504;48.810;9.172;2022-09-09T10:45:16;102.50;;;1.60;;
8938;SDS011;4504;48.810;9.172;2022-09-09T10:47:50;102.67;;;1.90;;
8938;SDS011;4504;48.810;9.172;2022-09-09T10:50:29;103.27;;;1.70;;
8938;SDS011;4504;48.810;9.172;2022-09-09T10:53:22;104.70;;;1.90;;
8938;SDS011;4504;48.810;9.172;2022-09-09T10:56:01;106.70;;;1.70;;
8938;SDS011;4504;48.810;9.172;2022-09-09T10:58:35;103.90;;;1.97;;
8938;SDS011;4504;48.810;9.172;2022-09-09T11:01:09;104.20;;;1.80;;
8938;SDS011;4504;48.810;9.172;2022-09-09T11:03:42;104.80;;;1.60;;
8938;SDS011;4504;48.810;9.172;2022-09-09T11:06:16;103.20;;;2.00;;
8938;SDS011;4504;48.810;9.172;2022-09-09T11:08:45;103.67;;;1.70;;
8938;SDS011;4504;48.810;9.172;2022-09-09T11:11:16;103.33;;;1.77;;
8938;SDS011;4504;48.810;9.172;2022-09-09T11:13:49;102.93;;;1.90;;
8938;SDS011;4504;48.810;9.172;2022-09-09T11:16:22;102.47;;;1.53;;
8938;SDS011;4504;48.810;9.172;2022-09-09T11:18:53;104.57;;;1.77;;
8938;SDS011;4504;48.810;9.172;2022-09-09T11:21:25;102.77;;;2.00;;
8938;SDS011;4504;48.810;9.172;2022-09-09T11:23:56;106.10;;;1.80;;
8938;SDS011;4504;48.810;9.172;2022-09-09T11:26:29;105.17;;;1.97;;
8938;SDS011;4504;48.810;9.172;2022-09-09T11:31:58;103.57;;;1.70;;
8938;SDS011;4504;48.810;9.172;2022-09-09T11:34:40;104.37;;;1.90;;
8938;SDS011;4504;48.810;9.172;2022-09-09T11:37:23;104.17;;;1.80;;
8938;SDS011;4504;48.810;9.172;2022-09-09T11:40:19;103.90;;;1.90;;
8938;SDS011;4504;48.810;9.172;2022-09-09T11:42:49;105.10;;;2.07;;
8938;SDS011;4504;48.810;9.172;2022-09-09T11:45:28;104.60;;;1.87;;
8938;SDS011;4504;48.810;9.172;2022-09-09T11:47:59;105.60;;;2.50;;
8938;SDS011;4504;48.810;9.172;2022-09-09T11:50:30;106.27;;;2.00;;
8938;SDS011;4504;48.810;9.172;2022-09-09T11:53:17;104.33;;;1.83;;
8938;SDS011;4504;48.810;9.172;2022-09-09T11:55:47;104.87;;;1.80;;
8938;SDS011;4504;48.810;9.172;2022-09-09T11:58:25;105.67;;;2.00;;
8938;SDS011;4504;48.810;9.172;2022-09-09T12:01:00;105.00;;;1.80;;
8938;SDS011;4504;48.810;9.172;2022-09-09T12:03:34;103.67;;;1.70;;
8938;SDS011;4504;48.810;9.172;2022-09-09T12:06:09;104.17;;;1.80;;
8938;SDS011;4504;48.810;9.172;2022-09-09T12:08:42;104.83;;;1.90;;
8938;SDS011;4504;48.810;9.172;2022-09-09T12:11:12;103.87;;;1.80;;
8938;SDS011;4504;48.810;9.172;2022-09-09T12:13:52;105.37;;;1.90;;
8938;SDS011;4504;48.810;9.172;2022-09-09T12:16:32;105.03;;;1.70;;
8938;SDS011;4504;48.810;9.172;2022-09-09T12:19:05;104.83;;;1.80;;
8938;SDS011;4504;48.810;9.172;2022-09-09T12:21:44;103.37;;;1.70;;
8938;SDS011;4504;48.810;9.172;2022-09-09T12:24:19;104.67;;;1.90;;
8938;SDS011;4504;48.810;9.172;2022-09-09T12:26:54;104.67;;;1.70;;
8938;SDS011;4504;48.810;9.172;2022-09-09T12:29:35;103.80;;;1.60;;
8938;SDS011;4504;48.810;9.172;2022-09-09T12:32:11;103.33;;;1.60;;
8938;SDS011;4504;48.810;9.172;2022-09-09T12:34:42;103.80;;;1.80;;
8938;SDS011;4504;48.810;9.172;2022-09-09T12:37:18;102.47;;;1.80;;
8938;SDS011;4504;48.810;9.172;2022-09-09T12:39:53;103.50;;;1.60;;
8938;SDS011;4504;48.810;9.172;2022-09-09T12:42:23;103.20;;;1.70;;
8938;SDS011;4504;48.810;9.172;2022-09-09T12:44:57;103.33;;;1.50;;
8938;SDS011;4504;48.810;9.172;2022-09-09T12:47:29;103.77;;;1.80;;
8938;SDS011;4504;48.810;9.172;2022-09-09T12:50:14;106.50;;;1.80;;
8938;SDS011;4504;48.810;9.172;2022-09-09T12:52:43;102.90;;;1.60;;
8938;SDS011;4504;48.810;9.172;2022-09-09T12:55:16;102.50;;;1.60;;
8938;SDS011;4504;48.810;9.172;2022-09-09T12:57:46;105.07;;;1.93;;
8938;SDS011;4504;48.810;9.172;2022-09-09T13:00:17;103.73;;;1.70;;
8938;SDS011;4504;48.810;9.172;2022-09-09T13:02:51;103.17;;;1.80;;
8938;SDS011;4504;48.810;9.172;2022-09-09T13:05:21;104.70;;;1.70;;
8938;SDS011;4504;48.810;9.172;2022-09-09T13:07:49;102.70;;;1.60;;
8938;SDS011;4504;48.810;9.172;2022-09-09T13:10:20;103.60;;;1.70;;
8938;SDS011;4504;48.810;9.172;2022-09-09T13:12:52;102.90;;;1.50;;
8938;SDS011;4504;48.810;9.172;2022-09-09T13:15:20;103.37;;;1.70;;
8938;SDS011;4504;48.810;9.172;2022-09-09T13:17:54;102.30;;;1.70;;
8938;SDS011;4504;48.810;9.172;2022-09-09T13:20:24;101.97;;;1.50;;
8938;SDS011;4504;48.810;9.172;2022-09-09T13:22:52;102.80;;;1.40;;
8938;SDS011;4504;48.810;9.172;2022-09-09T13:25:23;103.60;;;1.60;;
8938;SDS011;4504;48.810;9.172;2022-09-09T13:27:55;102.87;;;1.70;;
8938;SDS011;4504;48.810;9.172;2022-09-09T13:30:28;101.27;;;1.40;;
8938;SDS011;4504;48.810;9.172;2022-09-09T13:36:03;101.70;;;1.60;;
8938;SDS011;4504;48.810;9.172;2022-09-09T13:38:35;102.27;;;1.40;;
8938;SDS011;4504;48.810;9.172;2022-09-09T13:41:05;100.83;;;1.53;;
8938;SDS011;4504;48.810;9.172;2022-09-09T13:43:36;103.87;;;1.80;;
8938;SDS011;4504;48.810;9.172;2022-09-09T13:46:22;104.50;;;1.63;;
8938;SDS011;4504;48.810;9.172;2022-09-09T13:48:56;101.37;;;1.40;;
8938;SDS011;4504;48.810;9.172;2022-09-09T13:51:30;103.90;;;1.60;;
8938;SDS011;4504;48.810;9.172;2022-09-09T13:54:02;103.30;;;1.50;;
8938;SDS011;4504;48.810;9.172;2022-09-09T13:56:31;101.83;;;1.60;;
8938;SDS011;4504;48.810;9.172;2022-09-09T13:58:59;102.60;;;1.60;;
8938;SDS011;4504;48.810;9.172;2022-09-09T14:01:26;101.47;;;1.53;;
8938;SDS011;4504;48.810;9.172;2022-09-09T14:03:53;102.07;;;1.50;;
8938;SDS011;4504;48.810;9.172;2022-09-09T14:06:21;102.03;;;1.53;;
8938;SDS011;4504;48.810;9.172;2022-09-09T14:08:50;101.93;;;1.60;;
8938;SDS011;4504;48.810;9.172;2022-09-09T14:11:19;103.80;;;1.70;;
8938;SDS011;4504;48.810;9.172;2022-09-09T14:13:47;103.83;;;1.60;;
8938;SDS011;4504;48.810;9.172;2022-09-09T14:16:15;102.10;;;1.50;;
8938;SDS011;4504;48.810;9.172;2022-09-09T14:18:43;102.00;;;1.30;;
8938;SDS011;4504;48.810;9.172;2022-09-09T14:21:10;100.57;;;1.30;;
8938;SDS011;4504;48.810;9.172;2022-09-09T14:23:38;101.17;;;1.47;;
8938;SDS011;4504;48.810;9.172;2022-09-09T14:26:07;102.07;;;1.40;;
8938;SDS011;4504;48.810;9.172;2022-09-09T14:28:35;101.63;;;1.20;;
8938;SDS011;4504;48.810;9.172;2022-09-09T14:31:03;104.63;;;1.40;;
8938;SDS011;4504;48.810;9.172;2022-09-09T14:33:30;103.20;;;1.40;;
8938;SDS011;4504;48.810;9.172;2022-09-09T14:35:58;101.47;;;1.40;;
8938;SDS011;4504;48.810;9.172;2022-09-09T14:38:28;102.10;;;1.60;;
8938;SDS011;4504;48.810;9.172;2022-09-09T14:40:56;101.50;;;1.70;;
8938;SDS011;4504;48.810;9.172;2022-09-09T14:43:25;102.20;;;1.80;;
8938;SDS011;4504;48.810;9.172;2022-09-09T14:45:53;102.63;;;1.50;;
8938;SDS011;4504;48.810;9.172;2022-09-09T14:48:20;101.37;;;1.60;;
8938;SDS011;4504;48.810;9.172;2022-09-09T14:50:47;101.03;;;1.40;;
8938;SDS011;4504;48.810;9.172;2022-09-09T14:53:16;101.47;;;1.40;;
8938;SDS011;4504;48.810;9.172;2022-09-09T14:55:43;101.83;;;1.30;;
8938;SDS011;4504;48.810;9.172;2022-09-09T14:58:11;102.00;;;1.33;;
8938;SDS011;4504;48.810;9.172;2022-09-09T15:00:41;101.37;;;1.40;;
8938;SDS011;4504;48.810;9.172;2022-09-09T15:03:08;100.57;;;1.43;;
8938;SDS011;4504;48.810;9.172;2022-09-09T15:05:36;101.50;;;1.63;;
8938;SDS011;4504;48.810;9.172;2022-09-09T15:08:03;101.27;;;1.40;;
8938;SDS011;4504;48.810;9.172;2022-09-09T15:10:29;102.30;;;1.40;;
8938;SDS011;4504;48.810;9.172;2022-09-09T15:12:58;102.47;;;1.50;;
8938;SDS011;4504;48.810;9.172;2022-09-09T15:15:25;101.37;;;1.33;;
8938;SDS011;4504;48.810;9.172;2022-09-09T15:17:53;102.00;;;1.40;;
8938;SDS011;4504;48.810;9.172;2022-09-09T15:20:21;102.03;;;1.50;;
8938;SDS011;4504;48.810;9.172;2022-09-09T15:22:48;101.97;;;1.43;;
8938;SDS011;4504;48.810;9.172;2022-09-09T15:25:16;104.00;;;1.80;;
8938;SDS011;4504;48.810;9.172;2022-09-09T15:27:44;101.97;;;1.60;;
8938;SDS011;4504;48.810;9.172;2022-09-09T15:30:11;102.37;;;1.50;;